sensor_id;sensor_type;location;lat;lon;timestamp;temperature;humidity
21891;DHT22;11110;52.386;16.940;2023-04-01T00:02:22;23.70;48.10
21891;DHT22;11110;52.386;16.940;2023-04-01T00:04:55;23.70;48.10
21891;DHT22;11110;52.386;16.940;2023-04-01T00:07:23;23.70;48.20
21891;DHT22;11110;52.386;16.940;2023-04-01T00:09:57;23.80;48.20
21891;DHT22;11110;52.386;16.940;2023-04-01T00:12:33;23.70;48.10
21891;DHT22;11110;52.386;16.940;2023-04-01T00:15:05;23.80;48.10
21891;DHT22;11110;52.386;16.940;2023-04-01T00:17:44;23.80;48.00
21891;DHT22;11110;52.386;16.940;2023-04-01T00:20:13;23.80;48.00
21891;DHT22;11110;52.386;16.940;2023-04-01T00:22:42;23.80;48.20
21891;DHT22;11110;52.386;16.940;2023-04-01T00:25:12;23.70;48.10
21891;DHT22;11110;52.386;16.940;2023-04-01T00:27:46;23.70;48.10
21891;DHT22;11110;52.386;16.940;2023-04-01T00:30:17;23.70;48.10
21891;DHT22;11110;52.386;16.940;2023-04-01T00:32:54;23.70;48.20
21891;DHT22;11110;52.386;16.940;2023-04-01T00:35:33;23.70;48.30
21891;DHT22;11110;52.386;16.940;2023-04-01T00:38:02;23.70;48.40
21891;DHT22;11110;52.386;16.940;2023-04-01T00:40:33;23.60;48.20
21891;DHT22;11110;52.386;16.940;2023-04-01T00:43:03;23.70;48.10
21891;DHT22;11110;52.386;16.940;2023-04-01T00:45:35;23.70;48.20
21891;DHT22;11110;52.386;16.940;2023-04-01T00:48:21;23.70;48.20
21891;DHT22;11110;52.386;16.940;2023-04-01T00:51:06;23.80;48.20
21891;DHT22;11110;52.386;16.940;2023-04-01T00:53:40;23.80;48.20
21891;DHT22;11110;52.386;16.940;2023-04-01T00:56:12;23.70;48.10
21891;DHT22;11110;52.386;16.940;2023-04-01T00:58:48;23.70;48.10
21891;DHT22;11110;52.386;16.940;2023-04-01T01:01:22;23.80;48.20
21891;DHT22;11110;52.386;16.940;2023-04-01T01:03:54;23.80;48.00
21891;DHT22;11110;52.386;16.940;2023-04-01T01:06:30;23.80;48.00
21891;DHT22;11110;52.386;16.940;2023-04-01T01:09:26;23.80;48.00
21891;DHT22;11110;52.386;16.940;2023-04-01T01:12:09;23.70;48.00
21891;DHT22;11110;52.386;16.940;2023-04-01T01:14:48;23.80;48.00
21891;DHT22;11110;52.386;16.940;2023-04-01T01:17:26;23.90;48.10
21891;DHT22;11110;52.386;16.940;2023-04-01T01:20:22;23.70;48.00
21891;DHT22;11110;52.386;16.940;2023-04-01T01:26:33;23.80;48.20
21891;DHT22;11110;52.386;16.940;2023-04-01T01:29:13;23.80;48.30
21891;DHT22;11110;52.386;16.940;2023-04-01T01:31:52;23.80;48.30
21891;DHT22;11110;52.386;16.940;2023-04-01T01:34:29;23.80;48.40
21891;DHT22;11110;52.386;16.940;2023-04-01T01:37:08;23.80;48.40
21891;DHT22;11110;52.386;16.940;2023-04-01T01:39:40;23.70;48.50
21891;DHT22;11110;52.386;16.940;2023-04-01T01:42:14;23.80;48.60
21891;DHT22;11110;52.386;16.940;2023-04-01T01:44:46;23.80;48.50
21891;DHT22;11110;52.386;16.940;2023-04-01T01:47:17;23.70;48.50
21891;DHT22;11110;52.386;16.940;2023-04-01T01:49:48;23.80;48.50
21891;DHT22;11110;52.386;16.940;2023-04-01T01:52:19;23.80;48.50
21891;DHT22;11110;52.386;16.940;2023-04-01T01:54:48;23.80;48.40
21891;DHT22;11110;52.386;16.940;2023-04-01T01:57:21;23.80;48.40
21891;DHT22;11110;52.386;16.940;2023-04-01T01:59:55;23.80;48.30
21891;DHT22;11110;52.386;16.940;2023-04-01T02:02:27;23.90;48.20
21891;DHT22;11110;52.386;16.940;2023-04-01T02:04:59;23.90;48.30
21891;DHT22;11110;52.386;16.940;2023-04-01T02:07:33;23.80;48.30
21891;DHT22;11110;52.386;16.940;2023-04-01T02:10:04;23.90;48.30
21891;DHT22;11110;52.386;16.940;2023-04-01T02:12:35;23.90;48.30
21891;DHT22;11110;52.386;16.940;2023-04-01T02:15:08;23.90;48.30
21891;DHT22;11110;52.386;16.940;2023-04-01T02:17:40;23.80;48.30
21891;DHT22;11110;52.386;16.940;2023-04-01T02:20:13;23.90;48.30
21891;DHT22;11110;52.386;16.940;2023-04-01T02:22:48;23.90;48.30
21891;DHT22;11110;52.386;16.940;2023-04-01T02:25:20;23.90;48.20
21891;DHT22;11110;52.386;16.940;2023-04-01T02:27:50;23.80;48.30
21891;DHT22;11110;52.386;16.940;2023-04-01T02:30:20;23.80;48.30
21891;DHT22;11110;52.386;16.940;2023-04-01T02:32:49;23.80;48.40
21891;DHT22;11110;52.386;16.940;2023-04-01T02:35:18;23.80;48.40
21891;DHT22;11110;52.386;16.940;2023-04-01T02:37:50;23.80;48.50
21891;DHT22;11110;52.386;16.940;2023-04-01T02:40:20;23.70;48.40
21891;DHT22;11110;52.386;16.940;2023-04-01T02:42:48;23.70;48.40
21891;DHT22;11110;52.386;16.940;2023-04-01T02:45:18;23.70;48.30
21891;DHT22;11110;52.386;16.940;2023-04-01T02:47:46;23.70;48.40
21891;DHT22;11110;52.386;16.940;2023-04-01T02:50:15;23.70;48.40
21891;DHT22;11110;52.386;16.940;2023-04-01T02:52:44;23.70;48.40
21891;DHT22;11110;52.386;16.940;2023-04-01T02:55:14;23.90;48.40
21891;DHT22;11110;52.386;16.940;2023-04-01T02:57:43;23.80;48.40
21891;DHT22;11110;52.386;16.940;2023-04-01T03:00:13;23.80;48.40
21891;DHT22;11110;52.386;16.940;2023-04-01T03:02:41;23.70;48.50
21891;DHT22;11110;52.386;16.940;2023-04-01T03:05:11;23.70;48.60
21891;DHT22;11110;52.386;16.940;2023-04-01T03:07:40;23.70;48.50
21891;DHT22;11110;52.386;16.940;2023-04-01T03:10:09;23.70;48.60
21891;DHT22;11110;52.386;16.940;2023-04-01T03:12:40;23.70;48.70
21891;DHT22;11110;52.386;16.940;2023-04-01T03:15:10;23.70;48.70
21891;DHT22;11110;52.386;16.940;2023-04-01T03:17:41;23.70;48.60
21891;DHT22;11110;52.386;16.940;2023-04-01T03:20:11;23.70;48.60
21891;DHT22;11110;52.386;16.940;2023-04-01T03:22:40;23.70;48.60
21891;DHT22;11110;52.386;16.940;2023-04-01T03:25:10;23.90;48.20
21891;DHT22;11110;52.386;16.940;2023-04-01T03:27:40;23.80;48.10
21891;DHT22;11110;52.386;16.940;2023-04-01T03:30:09;23.80;48.30
21891;DHT22;11110;52.386;16.940;2023-04-01T03:32:47;23.70;48.40
21891;DHT22;11110;52.386;16.940;2023-04-01T03:35:16;23.70;48.20
21891;DHT22;11110;52.386;16.940;2023-04-01T03:37:45;23.70;48.20
21891;DHT22;11110;52.386;16.940;2023-04-01T03:40:14;23.70;48.30
21891;DHT22;11110;52.386;16.940;2023-04-01T03:42:45;23.80;48.30
21891;DHT22;11110;52.386;16.940;2023-04-01T03:45:15;23.80;48.20
21891;DHT22;11110;52.386;16.940;2023-04-01T03:47:43;23.80;48.00
21891;DHT22;11110;52.386;16.940;2023-04-01T03:50:12;23.80;47.90
21891;DHT22;11110;52.386;16.940;2023-04-01T03:52:41;23.70;47.90
21891;DHT22;11110;52.386;16.940;2023-04-01T03:55:10;23.60;48.20
21891;DHT22;11110;52.386;16.940;2023-04-01T03:57:39;23.50;48.40
21891;DHT22;11110;52.386;16.940;2023-04-01T04:00:18;23.50;48.70
21891;DHT22;11110;52.386;16.940;2023-04-01T04:02:52;23.40;48.80
21891;DHT22;11110;52.386;16.940;2023-04-01T04:05:27;23.30;48.80
21891;DHT22;11110;52.386;16.940;2023-04-01T04:07:56;23.30;48.80
21891;DHT22;11110;52.386;16.940;2023-04-01T04:10:25;23.40;48.80
21891;DHT22;11110;52.386;16.940;2023-04-01T04:12:53;23.30;48.80
21891;DHT22;11110;52.386;16.940;2023-04-01T04:15:25;23.30;48.90
21891;DHT22;11110;52.386;16.940;2023-04-01T04:17:53;23.40;49.50
21891;DHT22;11110;52.386;16.940;2023-04-01T04:20:22;23.30;48.70
21891;DHT22;11110;52.386;16.940;2023-04-01T04:22:51;23.40;48.80
21891;DHT22;11110;52.386;16.940;2023-04-01T04:25:20;23.30;48.70
21891;DHT22;11110;52.386;16.940;2023-04-01T04:27:49;23.30;48.80
21891;DHT22;11110;52.386;16.940;2023-04-01T04:30:18;23.30;48.80
21891;DHT22;11110;52.386;16.940;2023-04-01T04:32:47;23.30;48.80
21891;DHT22;11110;52.386;16.940;2023-04-01T04:35:16;23.30;48.80
21891;DHT22;11110;52.386;16.940;2023-04-01T04:37:45;23.30;48.90
21891;DHT22;11110;52.386;16.940;2023-04-01T04:40:14;23.30;48.80
21891;DHT22;11110;52.386;16.940;2023-04-01T04:42:43;23.30;48.80
21891;DHT22;11110;52.386;16.940;2023-04-01T04:45:15;23.40;48.80
21891;DHT22;11110;52.386;16.940;2023-04-01T04:47:53;23.40;48.80
21891;DHT22;11110;52.386;16.940;2023-04-01T04:50:23;23.50;48.60
21891;DHT22;11110;52.386;16.940;2023-04-01T04:52:52;23.50;48.60
21891;DHT22;11110;52.386;16.940;2023-04-01T04:55:21;23.40;48.70
21891;DHT22;11110;52.386;16.940;2023-04-01T04:58:04;23.40;48.70
21891;DHT22;11110;52.386;16.940;2023-04-01T05:00:34;23.50;48.40
21891;DHT22;11110;52.386;16.940;2023-04-01T05:03:08;23.40;48.40
21891;DHT22;11110;52.386;16.940;2023-04-01T05:05:37;23.40;48.80
21891;DHT22;11110;52.386;16.940;2023-04-01T05:08:06;23.30;48.80
21891;DHT22;11110;52.386;16.940;2023-04-01T05:10:35;23.30;48.80
21891;DHT22;11110;52.386;16.940;2023-04-01T05:13:04;23.30;48.80
21891;DHT22;11110;52.386;16.940;2023-04-01T05:15:35;23.30;48.80
21891;DHT22;11110;52.386;16.940;2023-04-01T05:18:04;23.30;48.90
21891;DHT22;11110;52.386;16.940;2023-04-01T05:20:34;23.30;48.80
21891;DHT22;11110;52.386;16.940;2023-04-01T05:23:03;23.30;48.70
21891;DHT22;11110;52.386;16.940;2023-04-01T05:25:32;23.30;48.80
21891;DHT22;11110;52.386;16.940;2023-04-01T05:28:02;23.30;48.90
21891;DHT22;11110;52.386;16.940;2023-04-01T05:30:31;23.50;48.80
21891;DHT22;11110;52.386;16.940;2023-04-01T05:33:21;23.50;48.70
21891;DHT22;11110;52.386;16.940;2023-04-01T05:35:51;23.40;48.70
21891;DHT22;11110;52.386;16.940;2023-04-01T05:38:20;23.50;48.50
21891;DHT22;11110;52.386;16.940;2023-04-01T05:40:50;23.30;48.70
21891;DHT22;11110;52.386;16.940;2023-04-01T05:43:18;23.30;48.80
21891;DHT22;11110;52.386;16.940;2023-04-01T05:45:49;23.50;48.60
21891;DHT22;11110;52.386;16.940;2023-04-01T05:48:42;23.30;48.70
21891;DHT22;11110;52.386;16.940;2023-04-01T05:51:14;23.20;49.00
21891;DHT22;11110;52.386;16.940;2023-04-01T05:53:43;23.30;49.20
21891;DHT22;11110;52.386;16.940;2023-04-01T05:56:12;23.20;49.00
21891;DHT22;11110;52.386;16.940;2023-04-01T05:58:50;23.20;49.20
21891;DHT22;11110;52.386;16.940;2023-04-01T06:01:21;23.40;49.30
21891;DHT22;11110;52.386;16.940;2023-04-01T06:03:49;23.30;49.20
21891;DHT22;11110;52.386;16.940;2023-04-01T06:06:24;23.30;49.10
21891;DHT22;11110;52.386;16.940;2023-04-01T06:09:01;23.30;49.00
21891;DHT22;11110;52.386;16.940;2023-04-01T06:11:39;23.40;48.90
21891;DHT22;11110;52.386;16.940;2023-04-01T06:14:19;23.50;48.90
21891;DHT22;11110;52.386;16.940;2023-04-01T06:17:08;23.50;48.50
21891;DHT22;11110;52.386;16.940;2023-04-01T06:19:43;23.50;48.20
21891;DHT22;11110;52.386;16.940;2023-04-01T06:22:33;23.40;48.30
21891;DHT22;11110;52.386;16.940;2023-04-01T06:25:24;23.20;48.80
21891;DHT22;11110;52.386;16.940;2023-04-01T06:28:13;23.10;49.20
21891;DHT22;11110;52.386;16.940;2023-04-01T06:30:51;23.20;49.30
21891;DHT22;11110;52.386;16.940;2023-04-01T06:33:38;23.00;49.50
21891;DHT22;11110;52.386;16.940;2023-04-01T06:36:31;23.20;49.20
21891;DHT22;11110;52.386;16.940;2023-04-01T06:39:14;23.10;49.60
21891;DHT22;11110;52.386;16.940;2023-04-01T06:42:06;23.00;49.70
21891;DHT22;11110;52.386;16.940;2023-04-01T06:44:46;22.90;49.90
21891;DHT22;11110;52.386;16.940;2023-04-01T06:47:44;23.00;50.00
21891;DHT22;11110;52.386;16.940;2023-04-01T06:50:39;23.10;49.80
21891;DHT22;11110;52.386;16.940;2023-04-01T06:53:42;23.10;49.90
21891;DHT22;11110;52.386;16.940;2023-04-01T06:56:37;23.10;49.70
21891;DHT22;11110;52.386;16.940;2023-04-01T06:59:16;23.30;49.60
21891;DHT22;11110;52.386;16.940;2023-04-01T07:01:50;23.20;49.50
21891;DHT22;11110;52.386;16.940;2023-04-01T07:04:21;23.10;49.60
21891;DHT22;11110;52.386;16.940;2023-04-01T07:06:54;23.20;49.80
21891;DHT22;11110;52.386;16.940;2023-04-01T07:09:26;23.20;50.00
21891;DHT22;11110;52.386;16.940;2023-04-01T07:12:25;23.30;50.00
21891;DHT22;11110;52.386;16.940;2023-04-01T07:15:24;23.40;49.70
21891;DHT22;11110;52.386;16.940;2023-04-01T07:17:56;23.40;49.70
21891;DHT22;11110;52.386;16.940;2023-04-01T07:20:29;23.50;49.60
21891;DHT22;11110;52.386;16.940;2023-04-01T07:23:03;23.50;49.60
21891;DHT22;11110;52.386;16.940;2023-04-01T07:25:55;23.50;49.60
21891;DHT22;11110;52.386;16.940;2023-04-01T07:28:30;23.50;49.30
21891;DHT22;11110;52.386;16.940;2023-04-01T07:31:15;23.50;49.30
21891;DHT22;11110;52.386;16.940;2023-04-01T07:33:51;23.40;49.20
21891;DHT22;11110;52.386;16.940;2023-04-01T07:36:27;23.30;49.70
21891;DHT22;11110;52.386;16.940;2023-04-01T07:39:08;23.40;49.50
21891;DHT22;11110;52.386;16.940;2023-04-01T07:42:01;23.20;49.50
21891;DHT22;11110;52.386;16.940;2023-04-01T07:44:41;23.20;49.90
21891;DHT22;11110;52.386;16.940;2023-04-01T07:47:23;23.30;50.00
21891;DHT22;11110;52.386;16.940;2023-04-01T07:50:06;23.30;50.10
21891;DHT22;11110;52.386;16.940;2023-04-01T07:52:41;23.50;50.00
21891;DHT22;11110;52.386;16.940;2023-04-01T07:55:24;23.50;49.80
21891;DHT22;11110;52.386;16.940;2023-04-01T07:58:03;23.50;49.90
21891;DHT22;11110;52.386;16.940;2023-04-01T08:00:44;23.60;49.60
21891;DHT22;11110;52.386;16.940;2023-04-01T08:03:36;23.30;49.60
21891;DHT22;11110;52.386;16.940;2023-04-01T08:06:12;23.30;50.20
21891;DHT22;11110;52.386;16.940;2023-04-01T08:08:53;23.30;50.30
21891;DHT22;11110;52.386;16.940;2023-04-01T08:12:02;23.40;49.90
21891;DHT22;11110;52.386;16.940;2023-04-01T08:14:59;23.40;50.00
21891;DHT22;11110;52.386;16.940;2023-04-01T08:17:56;23.50;50.10
21891;DHT22;11110;52.386;16.940;2023-04-01T08:20:29;23.40;50.40
21891;DHT22;11110;52.386;16.940;2023-04-01T08:23:05;23.30;50.00
21891;DHT22;11110;52.386;16.940;2023-04-01T08:25:40;23.30;50.00
21891;DHT22;11110;52.386;16.940;2023-04-01T08:28:16;23.20;50.10
21891;DHT22;11110;52.386;16.940;2023-04-01T08:30:49;23.30;50.10
21891;DHT22;11110;52.386;16.940;2023-04-01T08:33:24;23.20;50.10
21891;DHT22;11110;52.386;16.940;2023-04-01T08:36:14;23.20;50.30
21891;DHT22;11110;52.386;16.940;2023-04-01T08:38:53;23.20;50.80
21891;DHT22;11110;52.386;16.940;2023-04-01T08:41:53;23.20;50.40
21891;DHT22;11110;52.386;16.940;2023-04-01T08:54:28;22.80;50.40
21891;DHT22;11110;52.386;16.940;2023-04-01T08:57:06;22.70;50.80
21891;DHT22;11110;52.386;16.940;2023-04-01T08:59:57;22.60;50.90
21891;DHT22;11110;52.386;16.940;2023-04-01T09:03:14;22.50;51.00
21891;DHT22;11110;52.386;16.940;2023-04-01T09:09:00;22.60;51.40
21891;DHT22;11110;52.386;16.940;2023-04-01T09:11:42;22.50;51.30
21891;DHT22;11110;52.386;16.940;2023-04-01T09:14:41;22.50;51.60
21891;DHT22;11110;52.386;16.940;2023-04-01T09:17:44;22.40;51.20
21891;DHT22;11110;52.386;16.940;2023-04-01T09:20:44;22.30;51.20
21891;DHT22;11110;52.386;16.940;2023-04-01T09:23:33;22.30;51.40
21891;DHT22;11110;52.386;16.940;2023-04-01T09:26:28;22.30;51.20
21891;DHT22;11110;52.386;16.940;2023-04-01T09:29:05;22.10;51.30
21891;DHT22;11110;52.386;16.940;2023-04-01T09:31:47;22.10;51.50
21891;DHT22;11110;52.386;16.940;2023-04-01T09:34:52;22.10;51.80
21891;DHT22;11110;52.386;16.940;2023-04-01T09:37:35;22.10;51.70
21891;DHT22;11110;52.386;16.940;2023-04-01T09:40:16;22.10;51.70
21891;DHT22;11110;52.386;16.940;2023-04-01T09:43:07;22.10;51.80
21891;DHT22;11110;52.386;16.940;2023-04-01T09:45:47;22.20;51.50
21891;DHT22;11110;52.386;16.940;2023-04-01T09:48:37;22.10;51.40
21891;DHT22;11110;52.386;16.940;2023-04-01T09:51:20;22.10;51.30
21891;DHT22;11110;52.386;16.940;2023-04-01T09:54:04;22.10;51.40
21891;DHT22;11110;52.386;16.940;2023-04-01T10:00:26;22.10;51.40
21891;DHT22;11110;52.386;16.940;2023-04-01T10:22:05;21.80;51.40
21891;DHT22;11110;52.386;16.940;2023-04-01T10:25:05;21.70;51.60
21891;DHT22;11110;52.386;16.940;2023-04-01T10:28:19;21.70;51.90
21891;DHT22;11110;52.386;16.940;2023-04-01T10:34:41;22.00;51.40
21891;DHT22;11110;52.386;16.940;2023-04-01T10:37:23;22.10;51.20
21891;DHT22;11110;52.386;16.940;2023-04-01T10:47:04;22.10;50.60
21891;DHT22;11110;52.386;16.940;2023-04-01T10:53:11;22.10;50.60
21891;DHT22;11110;52.386;16.940;2023-04-01T10:56:40;22.00;50.70
21891;DHT22;11110;52.386;16.940;2023-04-01T11:00:04;21.90;50.90
21891;DHT22;11110;52.386;16.940;2023-04-01T11:13:24;21.70;51.40
21891;DHT22;11110;52.386;16.940;2023-04-01T11:16:15;21.60;51.40
21891;DHT22;11110;52.386;16.940;2023-04-01T11:22:15;21.50;51.50
21891;DHT22;11110;52.386;16.940;2023-04-01T11:29:08;21.60;52.30
21891;DHT22;11110;52.386;16.940;2023-04-01T11:31:47;21.50;51.30
21891;DHT22;11110;52.386;16.940;2023-04-01T11:34:43;21.50;51.40
21891;DHT22;11110;52.386;16.940;2023-04-01T11:37:24;21.50;51.30
21891;DHT22;11110;52.386;16.940;2023-04-01T11:40:29;21.50;51.10
21891;DHT22;11110;52.386;16.940;2023-04-01T11:43:27;21.50;51.20
21891;DHT22;11110;52.386;16.940;2023-04-01T11:46:23;21.60;51.20
21891;DHT22;11110;52.386;16.940;2023-04-01T11:49:02;21.70;51.20
21891;DHT22;11110;52.386;16.940;2023-04-01T11:51:53;21.80;51.10
21891;DHT22;11110;52.386;16.940;2023-04-01T11:54:45;21.90;50.90
21891;DHT22;11110;52.386;16.940;2023-04-01T11:57:36;22.10;50.70
21891;DHT22;11110;52.386;16.940;2023-04-01T12:00:30;22.10;50.40
21891;DHT22;11110;52.386;16.940;2023-04-01T12:03:16;22.20;50.10
21891;DHT22;11110;52.386;16.940;2023-04-01T12:05:52;22.20;50.00
21891;DHT22;11110;52.386;16.940;2023-04-01T12:08:31;22.20;50.00
21891;DHT22;11110;52.386;16.940;2023-04-01T12:11:09;22.20;50.30
21891;DHT22;11110;52.386;16.940;2023-04-01T12:13:50;22.20;50.30
21891;DHT22;11110;52.386;16.940;2023-04-01T12:16:33;22.20;50.00
21891;DHT22;11110;52.386;16.940;2023-04-01T12:19:15;21.90;50.10
21891;DHT22;11110;52.386;16.940;2023-04-01T12:21:52;21.80;50.50
21891;DHT22;11110;52.386;16.940;2023-04-01T12:24:44;21.80;50.40
21891;DHT22;11110;52.386;16.940;2023-04-01T12:33:29;21.50;50.90
21891;DHT22;11110;52.386;16.940;2023-04-01T12:36:13;21.40;50.80
21891;DHT22;11110;52.386;16.940;2023-04-01T12:38:57;21.40;51.00
21891;DHT22;11110;52.386;16.940;2023-04-01T12:41:39;21.40;51.20
21891;DHT22;11110;52.386;16.940;2023-04-01T12:44:16;21.40;51.00
21891;DHT22;11110;52.386;16.940;2023-04-01T12:47:09;21.40;51.10
21891;DHT22;11110;52.386;16.940;2023-04-01T12:52:50;21.30;51.10
21891;DHT22;11110;52.386;16.940;2023-04-01T12:55:36;21.30;51.10
21891;DHT22;11110;52.386;16.940;2023-04-01T12:58:44;21.30;51.10
21891;DHT22;11110;52.386;16.940;2023-04-01T13:01:28;21.30;51.10
21891;DHT22;11110;52.386;16.940;2023-04-01T13:04:38;21.30;50.80
21891;DHT22;11110;52.386;16.940;2023-04-01T13:07:25;21.20;50.70
21891;DHT22;11110;52.386;16.940;2023-04-01T13:10:06;21.20;50.80
21891;DHT22;11110;52.386;16.940;2023-04-01T13:13:05;21.20;50.90
21891;DHT22;11110;52.386;16.940;2023-04-01T13:15:41;21.20;50.70
21891;DHT22;11110;52.386;16.940;2023-04-01T13:18:21;21.10;50.70
21891;DHT22;11110;52.386;16.940;2023-04-01T13:21:00;21.10;50.60
21891;DHT22;11110;52.386;16.940;2023-04-01T13:23:39;21.00;51.40
21891;DHT22;11110;52.386;16.940;2023-04-01T13:26:16;21.00;50.70
21891;DHT22;11110;52.386;16.940;2023-04-01T13:28:52;21.00;50.70
21891;DHT22;11110;52.386;16.940;2023-04-01T13:31:40;21.10;50.70
21891;DHT22;11110;52.386;16.940;2023-04-01T13:34:24;21.10;50.50
21891;DHT22;11110;52.386;16.940;2023-04-01T13:37:06;21.10;50.30
21891;DHT22;11110;52.386;16.940;2023-04-01T13:39:49;21.10;50.40
21891;DHT22;11110;52.386;16.940;2023-04-01T13:42:25;21.00;50.30
21891;DHT22;11110;52.386;16.940;2023-04-01T13:45:00;20.90;50.50
21891;DHT22;11110;52.386;16.940;2023-04-01T13:50:54;20.80;50.50
21891;DHT22;11110;52.386;16.940;2023-04-01T13:53:51;20.80;50.40
21891;DHT22;11110;52.386;16.940;2023-04-01T13:56:34;20.80;50.20
21891;DHT22;11110;52.386;16.940;2023-04-01T13:59:25;20.90;50.20
21891;DHT22;11110;52.386;16.940;2023-04-01T14:01:59;20.80;50.10
21891;DHT22;11110;52.386;16.940;2023-04-01T14:04:59;20.90;50.10
21891;DHT22;11110;52.386;16.940;2023-04-01T14:07:46;20.80;50.00
21891;DHT22;11110;52.386;16.940;2023-04-01T14:10:25;20.90;50.00
21891;DHT22;11110;52.386;16.940;2023-04-01T14:13:02;21.00;50.00
21891;DHT22;11110;52.386;16.940;2023-04-01T14:18:52;21.00;49.70
21891;DHT22;11110;52.386;16.940;2023-04-01T14:21:35;21.10;49.50
21891;DHT22;11110;52.386;16.940;2023-04-01T14:24:23;21.10;49.40
21891;DHT22;11110;52.386;16.940;2023-04-01T14:30:15;21.30;49.10
21891;DHT22;11110;52.386;16.940;2023-04-01T14:32:51;21.40;48.80
21891;DHT22;11110;52.386;16.940;2023-04-01T14:35:30;21.40;48.60
21891;DHT22;11110;52.386;16.940;2023-04-01T14:38:20;21.40;48.60
21891;DHT22;11110;52.386;16.940;2023-04-01T14:40:56;21.40;48.40
21891;DHT22;11110;52.386;16.940;2023-04-01T14:44:01;21.40;48.50
21891;DHT22;11110;52.386;16.940;2023-04-01T14:49:36;21.60;48.20
21891;DHT22;11110;52.386;16.940;2023-04-01T14:52:13;21.70;47.90
21891;DHT22;11110;52.386;16.940;2023-04-01T14:54:46;21.80;48.00
21891;DHT22;11110;52.386;16.940;2023-04-01T14:57:16;21.90;47.60
21891;DHT22;11110;52.386;16.940;2023-04-01T14:59:53;21.90;48.30
21891;DHT22;11110;52.386;16.940;2023-04-01T15:02:37;22.00;47.40
21891;DHT22;11110;52.386;16.940;2023-04-01T15:05:16;22.00;47.20
21891;DHT22;11110;52.386;16.940;2023-04-01T15:08:00;21.90;47.10
21891;DHT22;11110;52.386;16.940;2023-04-01T15:10:42;21.80;47.10
21891;DHT22;11110;52.386;16.940;2023-04-01T15:13:14;21.80;47.00
21891;DHT22;11110;52.386;16.940;2023-04-01T15:15:58;21.60;47.30
21891;DHT22;11110;52.386;16.940;2023-04-01T15:18:38;21.50;47.70
21891;DHT22;11110;52.386;16.940;2023-04-01T15:21:19;21.40;47.70
21891;DHT22;11110;52.386;16.940;2023-04-01T15:23:56;21.40;47.80
21891;DHT22;11110;52.386;16.940;2023-04-01T15:26:53;21.30;47.90
21891;DHT22;11110;52.386;16.940;2023-04-01T15:29:39;21.30;47.90
21891;DHT22;11110;52.386;16.940;2023-04-01T15:32:17;21.30;48.10
21891;DHT22;11110;52.386;16.940;2023-04-01T15:34:52;21.30;47.90
21891;DHT22;11110;52.386;16.940;2023-04-01T15:37:35;21.30;47.80
21891;DHT22;11110;52.386;16.940;2023-04-01T15:40:17;21.40;47.80
21891;DHT22;11110;52.386;16.940;2023-04-01T15:42:59;21.40;47.80
21891;DHT22;11110;52.386;16.940;2023-04-01T15:45:40;21.50;48.00
21891;DHT22;11110;52.386;16.940;2023-04-01T15:48:22;21.60;47.80
21891;DHT22;11110;52.386;16.940;2023-04-01T15:51:14;21.70;47.70
21891;DHT22;11110;52.386;16.940;2023-04-01T15:53:54;21.50;47.30
21891;DHT22;11110;52.386;16.940;2023-04-01T15:56:30;21.20;47.50
21891;DHT22;11110;52.386;16.940;2023-04-01T15:59:17;21.00;47.70
21891;DHT22;11110;52.386;16.940;2023-04-01T16:01:55;20.90;47.90
21891;DHT22;11110;52.386;16.940;2023-04-01T16:04:47;20.80;48.20
21891;DHT22;11110;52.386;16.940;2023-04-01T16:07:38;20.70;48.10
21891;DHT22;11110;52.386;16.940;2023-04-01T16:10:27;20.70;48.20
21891;DHT22;11110;52.386;16.940;2023-04-01T16:13:13;20.70;48.20
21891;DHT22;11110;52.386;16.940;2023-04-01T16:15:48;20.70;48.10
21891;DHT22;11110;52.386;16.940;2023-04-01T16:18:36;20.70;48.10
21891;DHT22;11110;52.386;16.940;2023-04-01T16:21:14;20.70;48.20
21891;DHT22;11110;52.386;16.940;2023-04-01T16:23:50;20.70;48.10
21891;DHT22;11110;52.386;16.940;2023-04-01T16:26:26;20.70;48.10
21891;DHT22;11110;52.386;16.940;2023-04-01T16:29:03;20.80;48.00
21891;DHT22;11110;52.386;16.940;2023-04-01T16:31:37;20.80;48.00
21891;DHT22;11110;52.386;16.940;2023-04-01T16:34:10;20.80;47.90
21891;DHT22;11110;52.386;16.940;2023-04-01T16:36:46;20.80;47.80
21891;DHT22;11110;52.386;16.940;2023-04-01T16:39:28;20.70;47.80
21891;DHT22;11110;52.386;16.940;2023-04-01T16:42:16;20.60;47.90
21891;DHT22;11110;52.386;16.940;2023-04-01T16:44:50;20.60;48.10
21891;DHT22;11110;52.386;16.940;2023-04-01T16:47:29;20.60;47.90
21891;DHT22;11110;52.386;16.940;2023-04-01T16:50:00;20.50;48.10
21891;DHT22;11110;52.386;16.940;2023-04-01T16:52:48;20.40;48.00
21891;DHT22;11110;52.386;16.940;2023-04-01T16:55:22;20.40;48.00
21891;DHT22;11110;52.386;16.940;2023-04-01T16:58:01;20.20;48.00
21891;DHT22;11110;52.386;16.940;2023-04-01T17:00:37;20.20;48.10
21891;DHT22;11110;52.386;16.940;2023-04-01T17:03:12;20.20;48.00
21891;DHT22;11110;52.386;16.940;2023-04-01T17:05:52;20.20;47.90
21891;DHT22;11110;52.386;16.940;2023-04-01T17:08:34;20.20;47.80
21891;DHT22;11110;52.386;16.940;2023-04-01T17:11:12;20.20;47.90
21891;DHT22;11110;52.386;16.940;2023-04-01T17:13:52;20.10;47.80
21891;DHT22;11110;52.386;16.940;2023-04-01T17:16:40;20.20;47.80
21891;DHT22;11110;52.386;16.940;2023-04-01T17:19:19;20.30;47.50
21891;DHT22;11110;52.386;16.940;2023-04-01T17:21:57;20.20;47.40
21891;DHT22;11110;52.386;16.940;2023-04-01T17:24:42;20.20;47.20
21891;DHT22;11110;52.386;16.940;2023-04-01T17:27:27;20.10;47.10
21891;DHT22;11110;52.386;16.940;2023-04-01T17:30:27;20.10;47.10
21891;DHT22;11110;52.386;16.940;2023-04-01T17:33:11;20.10;47.20
21891;DHT22;11110;52.386;16.940;2023-04-01T17:35:50;20.10;47.20
21891;DHT22;11110;52.386;16.940;2023-04-01T17:41:25;19.90;47.10
21891;DHT22;11110;52.386;16.940;2023-04-01T17:44:04;20.00;47.20
21891;DHT22;11110;52.386;16.940;2023-04-01T17:46:50;20.00;47.10
21891;DHT22;11110;52.386;16.940;2023-04-01T17:49:29;20.00;47.10
21891;DHT22;11110;52.386;16.940;2023-04-01T17:52:06;19.90;47.00
21891;DHT22;11110;52.386;16.940;2023-04-01T17:54:41;19.90;47.10
21891;DHT22;11110;52.386;16.940;2023-04-01T17:57:34;19.90;47.10
21891;DHT22;11110;52.386;16.940;2023-04-01T18:00:19;20.00;46.90
21891;DHT22;11110;52.386;16.940;2023-04-01T18:02:59;19.90;47.00
21891;DHT22;11110;52.386;16.940;2023-04-01T18:05:58;19.80;47.00
21891;DHT22;11110;52.386;16.940;2023-04-01T18:08:41;19.60;46.90